createdAt,value
2022-12-16T00:02:21.788Z,56.20
2022-12-16T00:05:29.815Z,59.83
2022-12-16T00:08:43.418Z,56.03
2022-12-16T00:11:50.482Z,66.55
2022-12-16T00:15:02.710Z,61.65
2022-12-16T00:18:09.927Z,62.22
2022-12-16T00:21:28.561Z,52.30
2022-12-16T00:24:40.026Z,62.63
2022-12-16T00:27:58.810Z,56.25
2022-12-16T00:31:16.093Z,63.92
2022-12-16T00:34:24.581Z,60.50
2022-12-16T00:37:57.775Z,56.30
2022-12-16T00:41:12.360Z,57.50
2022-12-16T00:44:22.989Z,59.25
2022-12-16T00:47:31.635Z,49.45
2022-12-16T00:50:45.883Z,62.20
2022-12-16T00:53:57.253Z,57.17
2022-12-16T00:57:11.589Z,56.80
2022-12-16T01:00:20.056Z,57.67
2022-12-16T01:03:42.190Z,59.55
2022-12-16T01:07:01.821Z,59.83
2022-12-16T01:16:44.727Z,54.80
2022-12-16T01:20:07.456Z,55.10
2022-12-16T01:23:20.201Z,56.45
2022-12-16T01:26:29.529Z,60.17
2022-12-16T01:29:39.093Z,67.85
2022-12-16T01:32:50.620Z,53.72
2022-12-16T01:36:14.089Z,59.42
2022-12-16T01:39:31.135Z,53.83
2022-12-16T01:42:42.628Z,58.05
2022-12-16T01:49:04.078Z,51.08
2022-12-16T01:52:30.541Z,56.97
2022-12-16T01:55:50.577Z,49.85
2022-12-16T01:58:58.518Z,56.28
2022-12-16T02:02:30.137Z,53.17
2022-12-16T02:05:41.340Z,52.60
2022-12-16T02:08:46.209Z,53.45
2022-12-16T02:12:18.717Z,50.10
2022-12-16T02:15:44.448Z,52.17
2022-12-16T02:19:18.733Z,55.03
2022-12-16T02:22:48.176Z,55.28
2022-12-16T02:26:21.885Z,53.00
2022-12-16T02:30:08.092Z,55.78
2022-12-16T02:33:41.621Z,50.75
2022-12-16T02:36:59.146Z,55.17
2022-12-16T02:40:12.371Z,49.95
2022-12-16T02:43:55.232Z,62.00
2022-12-16T02:47:04.655Z,51.95
2022-12-16T02:50:24.529Z,55.83
2022-12-16T02:53:36.551Z,49.53
2022-12-16T02:56:51.703Z,51.42
2022-12-16T03:00:12.269Z,48.92
2022-12-16T03:03:34.363Z,57.08
2022-12-16T03:06:52.235Z,55.53
2022-12-16T03:10:06.323Z,52.83
2022-12-16T03:13:15.635Z,50.38
2022-12-16T03:16:35.968Z,49.67
2022-12-16T03:19:46.402Z,51.58
2022-12-16T03:23:08.986Z,52.95
2022-12-16T03:26:24.222Z,56.70
2022-12-16T03:29:33.731Z,53.45
2022-12-16T03:32:44.675Z,53.83
2022-12-16T03:35:59.602Z,53.88
2022-12-16T03:39:09.895Z,58.78
2022-12-16T03:42:31.535Z,54.05
2022-12-16T03:46:03.144Z,52.72
2022-12-16T03:49:14.862Z,54.60
2022-12-16T03:52:33.122Z,52.90
2022-12-16T03:55:41.513Z,62.22
2022-12-16T03:58:53.408Z,48.38
2022-12-16T04:01:59.720Z,56.85
2022-12-16T04:05:49.725Z,52.13
2022-12-16T04:09:09.591Z,50.92
2022-12-16T04:12:36.711Z,55.10
2022-12-16T04:16:05.472Z,54.13
2022-12-16T04:19:35.147Z,58.65
2022-12-16T04:22:58.345Z,53.65
2022-12-16T04:26:16.681Z,51.97
2022-12-16T04:29:57.740Z,60.88
2022-12-16T04:33:22.237Z,58.55
2022-12-16T04:36:43.803Z,52.90
2022-12-16T04:40:01.422Z,59.40
2022-12-16T04:43:21.912Z,55.63
2022-12-16T04:46:45.343Z,59.80
2022-12-16T04:50:08.160Z,49.90
2022-12-16T04:53:31.231Z,54.72
2022-12-16T04:56:59.018Z,55.30
2022-12-16T05:00:23.729Z,49.58
2022-12-16T05:03:47.554Z,53.88
2022-12-16T05:07:04.745Z,57.85
2022-12-16T05:10:25.958Z,55.83
2022-12-16T05:13:52.683Z,55.90
2022-12-16T05:17:10.084Z,58.92
2022-12-16T05:20:34.015Z,50.65
2022-12-16T05:24:06.775Z,52.67
2022-12-16T05:27:26.158Z,51.90
2022-12-16T05:30:50.735Z,62.42
2022-12-16T05:34:08.943Z,63.72
2022-12-16T05:37:32.698Z,62.00
2022-12-16T05:40:52.694Z,53.45
2022-12-16T05:47:44.673Z,61.53
2022-12-16T05:51:06.554Z,55.67
2022-12-16T05:54:26.284Z,54.33
2022-12-16T05:57:57.171Z,51.63
2022-12-16T06:01:19.312Z,54.70
2022-12-16T06:04:45.260Z,49.60
2022-12-16T06:15:46.091Z,54.05
2022-12-16T06:19:11.217Z,54.87
2022-12-16T06:22:31.282Z,53.33
2022-12-16T06:25:57.128Z,57.80
2022-12-16T06:29:19.042Z,65.88
2022-12-16T06:32:44.991Z,55.85
2022-12-16T06:36:21.898Z,62.08
2022-12-16T06:39:43.077Z,50.25
2022-12-16T06:43:02.886Z,50.65
2022-12-16T06:46:30.231Z,51.10
2022-12-16T06:49:53.351Z,54.10
2022-12-16T06:53:11.668Z,52.40
2022-12-16T06:56:46.621Z,55.53
2022-12-16T07:00:08.477Z,56.90
2022-12-16T07:03:42.664Z,58.05
2022-12-16T07:07:12.767Z,55.75
2022-12-16T07:10:34.348Z,45.75
2022-12-16T07:13:51.795Z,54.97
2022-12-16T07:17:12.380Z,55.03
2022-12-16T07:20:40.016Z,55.55
2022-12-16T07:24:05.840Z,51.13
2022-12-16T07:27:28.085Z,48.15
2022-12-16T07:30:48.638Z,53.33
2022-12-16T07:34:07.287Z,50.08
2022-12-16T07:37:34.244Z,52.65
2022-12-16T07:40:53.807Z,65.18
2022-12-16T07:44:14.146Z,56.03
2022-12-16T07:47:36.858Z,55.67
2022-12-16T07:50:56.702Z,53.72
2022-12-16T07:54:15.704Z,54.22
2022-12-16T07:57:33.768Z,57.03
2022-12-16T08:01:01.005Z,60.65
2022-12-16T08:04:25.450Z,61.33
2022-12-16T08:07:44.388Z,61.15
2022-12-16T08:11:03.784Z,68.10
2022-12-16T08:14:27.752Z,82.57
2022-12-16T08:17:46.441Z,59.80
2022-12-16T08:21:08.800Z,64.75
2022-12-16T08:24:27.949Z,68.25
2022-12-16T08:27:48.066Z,58.67
2022-12-16T08:31:08.275Z,67.55
2022-12-16T08:34:31.998Z,56.78
2022-12-16T08:37:48.909Z,67.47
2022-12-16T08:41:11.798Z,63.30
2022-12-16T08:44:42.688Z,62.63
2022-12-16T08:48:07.225Z,70.85
2022-12-16T08:51:28.040Z,61.05
2022-12-16T08:54:45.849Z,66.85
2022-12-16T08:58:08.780Z,67.55
2022-12-16T09:01:31.180Z,70.10
2022-12-16T09:04:50.108Z,59.15
2022-12-16T09:08:14.836Z,60.53
2022-12-16T09:11:35.156Z,58.90
2022-12-16T09:15:05.492Z,59.92
2022-12-16T09:18:37.624Z,70.85
2022-12-16T09:21:57.628Z,62.28
2022-12-16T09:25:23.294Z,55.92
2022-12-16T09:28:42.155Z,62.08
2022-12-16T09:32:13.825Z,71.22
2022-12-16T09:35:35.207Z,57.55
2022-12-16T09:38:55.620Z,58.85
2022-12-16T09:42:26.226Z,64.30
2022-12-16T09:45:53.251Z,52.47
2022-12-16T09:49:24.136Z,60.90
2022-12-16T09:52:48.422Z,57.20
2022-12-16T09:56:07.939Z,56.80
2022-12-16T09:59:40.641Z,65.40
2022-12-16T10:03:07.224Z,55.33
2022-12-16T10:06:45.369Z,64.38
2022-12-16T10:10:14.731Z,62.40
2022-12-16T10:13:42.087Z,55.63
2022-12-16T10:17:06.460Z,62.90
2022-12-16T10:20:39.825Z,65.53
2022-12-16T10:24:20.139Z,66.05
2022-12-16T10:27:57.998Z,62.60
2022-12-16T10:31:19.780Z,64.68
2022-12-16T10:34:43.108Z,77.95
2022-12-16T10:38:06.972Z,75.40
2022-12-16T10:41:28.921Z,66.78
2022-12-16T10:44:56.328Z,73.70
2022-12-16T10:48:13.569Z,77.03
2022-12-16T10:51:38.242Z,77.88
2022-12-16T10:55:13.230Z,87.38
2022-12-16T10:58:38.913Z,74.50
2022-12-16T11:02:14.938Z,68.00
2022-12-16T11:06:01.850Z,74.00
2022-12-16T11:09:43.103Z,80.28
2022-12-16T11:13:06.047Z,84.22
2022-12-16T11:16:33.955Z,80.97
2022-12-16T11:20:00.548Z,89.85
2022-12-16T11:23:53.115Z,86.32
2022-12-16T11:27:42.185Z,92.50
2022-12-16T11:31:10.128Z,89.75
2022-12-16T11:34:33.291Z,91.97
2022-12-16T11:37:55.942Z,90.10
2022-12-16T11:41:17.461Z,108.70
2022-12-16T11:44:49.536Z,98.25
2022-12-16T11:48:22.150Z,94.35
2022-12-16T11:51:48.582Z,109.43
2022-12-16T11:55:13.041Z,102.93
2022-12-16T11:58:49.018Z,110.75
2022-12-16T12:02:13.151Z,102.82
2022-12-16T12:05:42.964Z,97.07
2022-12-16T12:09:15.521Z,113.50
2022-12-16T12:12:53.828Z,98.80
2022-12-16T12:16:28.617Z,93.40
2022-12-16T12:20:14.155Z,121.07
2022-12-16T12:23:57.847Z,96.00
2022-12-16T12:27:36.361Z,100.45
2022-12-16T12:31:07.650Z,101.60
2022-12-16T12:34:41.114Z,106.35
2022-12-16T12:38:14.908Z,99.32
2022-12-16T12:41:38.680Z,108.10
2022-12-16T12:45:10.740Z,107.22
2022-12-16T12:48:45.034Z,105.68
2022-12-16T12:52:11.782Z,111.50
2022-12-16T12:55:46.167Z,88.72
2022-12-16T12:59:10.592Z,91.82
2022-12-16T13:02:37.873Z,111.90
2022-12-16T13:06:00.444Z,92.82
2022-12-16T13:09:19.136Z,86.88
2022-12-16T13:12:48.382Z,96.00
2022-12-16T13:16:08.892Z,102.22
2022-12-16T13:19:59.531Z,105.78
2022-12-16T13:23:45.499Z,97.47
2022-12-16T13:27:34.074Z,96.43
2022-12-16T13:30:52.880Z,109.88
2022-12-16T13:34:20.319Z,101.90
2022-12-16T13:37:43.479Z,104.40
2022-12-16T13:41:10.214Z,110.23
2022-12-16T13:45:10.481Z,99.95
2022-12-16T13:52:30.041Z,97.35
2022-12-16T13:56:09.648Z,103.38
2022-12-16T13:59:36.082Z,101.53
2022-12-16T14:02:57.286Z,100.93
2022-12-16T14:06:34.302Z,102.47
2022-12-16T14:09:58.479Z,105.88
2022-12-16T14:13:36.071Z,80.65
2022-12-16T14:17:08.100Z,92.32
2022-12-16T14:20:35.071Z,107.15
2022-12-16T14:24:04.127Z,112.75
2022-12-16T14:27:40.566Z,117.80
2022-12-16T14:30:58.240Z,96.68
2022-12-16T14:34:33.674Z,102.57
2022-12-16T14:37:55.650Z,106.65
2022-12-16T14:41:25.187Z,103.15
2022-12-16T14:44:47.214Z,90.75
2022-12-16T14:48:31.829Z,114.05
2022-12-16T14:51:59.818Z,100.32
2022-12-16T14:55:43.397Z,118.72
2022-12-16T14:59:32.434Z,119.75
2022-12-16T15:02:56.362Z,98.13
2022-12-16T15:06:21.187Z,102.38
2022-12-16T15:09:59.955Z,108.47
2022-12-16T15:13:25.658Z,115.22
2022-12-16T15:16:51.873Z,105.72
2022-12-16T15:20:42.261Z,93.05
2022-12-16T15:24:01.491Z,97.55
2022-12-16T15:27:52.086Z,104.78
2022-12-16T15:31:16.810Z,105.00
2022-12-16T15:34:49.398Z,110.57
2022-12-16T15:38:07.251Z,101.95
2022-12-16T15:41:36.256Z,102.85
2022-12-16T15:45:04.078Z,91.70
2022-12-16T15:48:41.306Z,105.82
2022-12-16T15:52:07.530Z,103.53
2022-12-16T15:56:09.856Z,106.68
2022-12-16T16:00:10.763Z,99.70
2022-12-16T16:04:44.758Z,98.97
2022-12-16T16:08:05.503Z,94.53
2022-12-16T16:11:27.947Z,109.00
2022-12-16T16:14:59.718Z,102.05
2022-12-16T16:18:21.212Z,99.00
2022-12-16T16:21:43.679Z,92.97
2022-12-16T16:25:01.244Z,133.60
2022-12-16T16:28:32.836Z,107.35
2022-12-16T16:31:52.795Z,82.07
2022-12-16T16:35:17.706Z,72.22
2022-12-16T16:38:49.074Z,80.43
2022-12-16T16:42:23.525Z,92.05
2022-12-16T16:45:47.537Z,72.40
2022-12-16T16:49:18.994Z,82.13
2022-12-16T16:56:27.641Z,96.50
2022-12-16T16:59:59.295Z,79.53
2022-12-16T17:03:20.239Z,75.32
2022-12-16T17:06:40.562Z,81.03
2022-12-16T17:10:03.582Z,87.60
2022-12-16T17:13:32.682Z,80.28
2022-12-16T17:16:54.344Z,81.22
2022-12-16T17:20:13.470Z,81.40
2022-12-16T17:23:35.985Z,77.00
2022-12-16T17:26:58.752Z,80.53
2022-12-16T17:30:47.726Z,79.72
2022-12-16T17:34:06.084Z,73.93
2022-12-16T17:37:40.711Z,85.00
2022-12-16T17:40:59.061Z,69.10
2022-12-16T17:44:23.995Z,80.38
2022-12-16T17:47:43.123Z,92.68
2022-12-16T17:51:11.960Z,84.22
2022-12-16T17:54:48.264Z,79.00
2022-12-16T17:58:21.341Z,85.35
2022-12-16T18:01:52.031Z,65.07
2022-12-16T18:05:12.878Z,79.78
2022-12-16T18:08:33.424Z,77.50
2022-12-16T18:11:53.596Z,72.53
2022-12-16T18:15:17.508Z,68.65
2022-12-16T18:19:02.348Z,66.00
2022-12-16T18:22:24.032Z,69.68
2022-12-16T18:25:52.030Z,73.22
2022-12-16T18:29:15.514Z,79.95
2022-12-16T18:32:36.732Z,72.25
2022-12-16T18:36:04.463Z,73.35
2022-12-16T18:39:29.249Z,68.15
2022-12-16T18:43:05.006Z,83.40
2022-12-16T18:46:23.567Z,76.03
2022-12-16T18:49:47.629Z,73.45
2022-12-16T19:04:00.467Z,81.88
2022-12-16T19:07:21.367Z,73.32
2022-12-16T19:10:42.023Z,67.55
2022-12-16T19:14:07.861Z,79.80
2022-12-16T19:17:32.116Z,78.15
2022-12-16T19:20:55.314Z,84.25
2022-12-16T19:24:14.106Z,84.13
2022-12-16T19:27:36.923Z,86.20
2022-12-16T19:31:15.358Z,81.28
2022-12-16T19:34:34.967Z,99.03
2022-12-16T19:38:04.658Z,87.57
2022-12-16T19:41:34.427Z,99.60
2022-12-16T19:45:10.187Z,78.72
2022-12-16T19:48:31.617Z,82.63
2022-12-16T19:51:48.880Z,95.00
2022-12-16T19:59:06.538Z,107.25
2022-12-16T20:02:28.358Z,110.60
2022-12-16T20:05:47.645Z,99.28
2022-12-16T20:09:10.380Z,104.10
2022-12-16T20:12:38.836Z,108.32
2022-12-16T20:15:58.852Z,98.00
2022-12-16T20:19:17.359Z,102.13
2022-12-16T20:22:39.465Z,109.90
2022-12-16T20:26:23.775Z,107.53
2022-12-16T20:29:43.832Z,114.95
2022-12-16T20:33:07.386Z,102.55
2022-12-16T20:36:38.483Z,111.13
2022-12-16T20:40:01.004Z,112.22
2022-12-16T20:43:31.236Z,102.15
2022-12-16T20:46:59.455Z,108.97
2022-12-16T20:50:16.838Z,113.88
2022-12-16T20:53:43.257Z,113.72
2022-12-16T20:57:13.011Z,129.13
2022-12-16T21:00:42.655Z,112.30
2022-12-16T21:04:09.505Z,112.10
2022-12-16T21:07:40.620Z,114.82
2022-12-16T21:11:10.276Z,118.03
2022-12-16T21:14:35.636Z,134.60
2022-12-16T21:18:01.436Z,134.98
2022-12-16T21:21:23.171Z,128.38
2022-12-16T21:24:52.410Z,121.85
2022-12-16T21:28:20.524Z,134.70
2022-12-16T21:31:51.909Z,130.93
2022-12-16T21:35:11.164Z,117.60
2022-12-16T21:38:56.199Z,100.15
2022-12-16T21:42:34.694Z,92.38
2022-12-16T21:45:53.123Z,100.80
2022-12-16T21:49:35.248Z,101.53
2022-12-16T21:52:54.157Z,115.10
2022-12-16T21:56:23.658Z,77.53
2022-12-16T21:59:43.678Z,121.45
2022-12-16T22:03:04.602Z,109.78
2022-12-16T22:06:36.293Z,114.53
2022-12-16T22:10:27.847Z,116.28
2022-12-16T22:17:26.511Z,123.75
2022-12-16T22:20:49.368Z,111.95
2022-12-16T22:24:11.315Z,112.07
2022-12-16T22:30:51.444Z,100.07
2022-12-16T22:34:14.045Z,116.60
2022-12-16T22:37:45.376Z,109.47
2022-12-16T22:41:19.914Z,113.38
2022-12-16T22:48:00.495Z,112.68
2022-12-16T22:51:31.242Z,113.13
2022-12-16T22:54:51.452Z,111.82
2022-12-16T22:58:26.220Z,114.40
2022-12-16T23:01:52.068Z,120.38
2022-12-16T23:05:27.045Z,110.37
2022-12-16T23:08:47.041Z,104.07
2022-12-16T23:15:56.501Z,111.95
2022-12-16T23:19:14.082Z,116.50
2022-12-16T23:22:33.514Z,115.30
2022-12-16T23:25:53.837Z,112.55
2022-12-16T23:29:13.807Z,106.75
2022-12-16T23:32:39.835Z,122.70
2022-12-16T23:36:05.439Z,102.13
2022-12-16T23:39:32.614Z,123.80
2022-12-16T23:42:52.305Z,95.25
2022-12-16T23:46:23.196Z,109.50
2022-12-16T23:49:44.673Z,109.18
2022-12-16T23:53:10.875Z,96.75
2022-12-16T23:56:54.044Z,99.15
